Time;durP1;ratioP1;P1;durP2;ratioP2;P2;SDS_P1;SDS_P2;PMS_P1;PMS_P2;Temp;Humidity;BMP_temperature;BMP_pressure;BME280_temperature;BME280_humidity;BME280_pressure;Samples;Min_cycle;Max_cycle;Signal;HPM_P1;HPM_P2
2022/06/12 00:02:17;;;;;;;3.00;1.17;;;17.70;58.90;;;;;;5115227;28;20102;-48
2022/06/12 00:04:42;;;;;;;4.53;1.10;;;17.70;59.00;;;;;;5115201;28;20012;-45
2022/06/12 00:07:08;;;;;;;1.90;0.90;;;17.60;59.10;;;;;;5115014;28;20588;-46
2022/06/12 00:09:34;;;;;;;3.13;0.90;;;17.60;59.30;;;;;;5114815;28;20055;-46
2022/06/12 00:11:59;;;;;;;2.40;1.20;;;17.60;59.50;;;;;;5114684;28;20030;-45
2022/06/12 00:14:25;;;;;;;3.15;1.00;;;17.50;59.60;;;;;;5114150;28;20088;-46
2022/06/12 00:16:52;;;;;;;2.92;0.95;;;17.50;59.80;;;;;;5114563;28;20467;-46
2022/06/12 00:19:19;;;;;;;3.65;1.20;;;17.40;59.90;;;;;;5114819;28;20087;-46
2022/06/12 00:21:45;;;;;;;2.65;1.00;;;17.40;60.10;;;;;;5114814;28;20479;-46
2022/06/12 00:24:14;;;;;;;3.55;1.30;;;17.30;60.20;;;;;;5114536;28;20512;-45
2022/06/12 00:26:46;;;;;;;3.67;1.10;;;17.30;60.40;;;;;;5114648;28;20020;-46
2022/06/12 00:29:17;;;;;;;2.80;1.30;;;17.30;60.50;;;;;;5114500;27;20023;-45
2022/06/12 00:31:47;;;;;;;2.58;1.13;;;17.20;60.60;;;;;;5114556;28;20395;-46
2022/06/12 00:34:14;;;;;;;2.67;1.20;;;17.20;60.70;;;;;;5112914;28;20555;-44
2022/06/12 00:36:40;;;;;;;2.63;1.23;;;17.10;60.80;;;;;;5114181;28;20051;-45
2022/06/12 00:39:08;;;;;;;2.65;1.13;;;17.10;61.00;;;;;;5114233;28;20077;-46
2022/06/12 00:41:34;;;;;;;2.47;1.20;;;17.10;61.30;;;;;;5114121;28;20023;-44
2022/06/12 00:44:00;;;;;;;3.15;1.20;;;17.00;61.30;;;;;;5114061;28;20439;-45
2022/06/12 00:46:46;;;;;;;5.95;1.50;;;17.00;61.60;;;;;;5114252;28;20390;-46
2022/06/12 00:49:25;;;;;;;1.98;1.33;;;16.90;61.80;;;;;;5114305;28;20439;-46
2022/06/12 00:51:56;;;;;;;2.90;1.30;;;16.90;62.00;;;;;;5114040;28;20084;-46
2022/06/12 00:54:24;;;;;;;2.58;1.05;;;16.90;62.10;;;;;;5114159;28;20076;-46
2022/06/12 00:56:53;;;;;;;1.92;1.15;;;16.80;62.10;;;;;;5113822;27;20115;-47
2022/06/12 00:59:43;;;;;;;3.95;1.20;;;16.80;62.30;;;;;;5113747;28;20043;-46
2022/06/12 01:02:13;;;;;;;2.42;1.30;;;16.80;62.40;;;;;;5113376;28;20032;-45
2022/06/12 01:07:29;;;;;;;2.40;1.30;;;16.70;62.50;;;;;;5113722;28;20084;-46
2022/06/12 01:09:59;;;;;;;1.60;1.30;;;16.70;63.30;;;;;;5113898;28;20072;-46
2022/06/12 01:12:28;;;;;;;2.88;1.30;;;16.60;62.70;;;;;;5113740;28;20028;-46
2022/06/12 01:14:58;;;;;;;3.53;1.40;;;16.60;62.90;;;;;;5113572;28;20020;-44
2022/06/12 01:17:26;;;;;;;4.40;1.65;;;16.60;62.90;;;;;;5113506;28;20106;-45
2022/06/12 01:20:08;;;;;;;1.88;1.30;;;16.60;63.10;;;;;;5113461;28;20080;-44
2022/06/12 01:22:48;;;;;;;3.30;1.63;;;16.50;63.10;;;;;;5113496;28;20020;-44
2022/06/12 01:25:33;;;;;;;6.05;1.88;;;16.50;63.30;;;;;;5113651;28;20498;-45
2022/06/12 01:28:27;;;;;;;4.85;1.55;;;16.50;63.40;;;;;;5113690;28;20023;-44
2022/06/12 01:30:52;;;;;;;3.25;1.50;;;16.50;63.60;;;;;;5113601;28;20027;-45
2022/06/12 01:33:32;;;;;;;3.03;1.50;;;16.40;63.40;;;;;;5113679;28;20394;-44
2022/06/12 01:36:16;;;;;;;4.97;1.40;;;16.40;63.70;;;;;;5113538;28;20427;-44
2022/06/12 01:38:56;;;;;;;2.40;1.20;;;16.40;63.90;;;;;;5113336;28;20023;-43
2022/06/12 01:41:44;;;;;;;2.35;1.10;;;16.30;63.90;;;;;;5113381;28;20019;-45
2022/06/12 01:44:24;;;;;;;3.88;1.33;;;16.30;64.00;;;;;;5113551;28;20487;-44
2022/06/12 01:47:02;;;;;;;2.67;1.30;;;16.30;64.00;;;;;;5113152;28;20046;-44
2022/06/12 01:50:07;;;;;;;4.85;1.50;;;16.30;64.30;;;;;;5113358;28;20034;-45
2022/06/12 01:52:51;;;;;;;4.32;1.35;;;16.20;64.50;;;;;;5100950;28;20028;-44
2022/06/12 01:55:31;;;;;;;4.28;1.40;;;16.20;64.60;;;;;;5113456;28;20032;-44
2022/06/12 01:58:06;;;;;;;3.22;1.25;;;16.20;64.80;;;;;;5113403;28;20439;-44
2022/06/12 02:00:33;;;;;;;7.28;1.80;;;16.10;64.80;;;;;;5113322;28;20028;-45
2022/06/12 02:03:28;;;;;;;5.53;1.52;;;16.10;64.90;;;;;;5113225;28;20030;-46
2022/06/12 02:06:09;;;;;;;4.43;1.50;;;16.00;65.20;;;;;;5113307;28;20163;-45
2022/06/12 02:08:40;;;;;;;6.65;1.60;;;16.00;65.30;;;;;;5112918;28;20026;-42
2022/06/12 02:14:08;;;;;;;4.57;1.50;;;16.00;65.60;;;;;;5113423;28;20092;-47
2022/06/12 02:16:39;;;;;;;3.08;1.50;;;16.00;65.70;;;;;;5112793;28;20020;-44
2022/06/12 02:19:20;;;;;;;4.82;1.60;;;15.90;65.80;;;;;;5112910;28;20087;-43
2022/06/12 02:21:53;;;;;;;3.55;1.33;;;15.90;66.00;;;;;;5113332;28;20020;-45
2022/06/12 02:24:38;;;;;;;5.15;1.67;;;15.90;66.00;;;;;;5112902;28;20040;-44
2022/06/12 02:27:12;;;;;;;4.13;1.40;;;15.90;66.20;;;;;;5112913;28;20475;-46
2022/06/12 02:29:55;;;;;;;4.78;1.35;;;15.80;66.20;;;;;;5112868;28;20034;-50
2022/06/12 02:32:35;;;;;;;3.80;1.50;;;15.80;66.20;;;;;;5112806;28;20034;-44
2022/06/12 02:35:06;;;;;;;6.32;1.40;;;15.80;66.30;;;;;;5113038;28;20019;-46
2022/06/12 02:37:45;;;;;;;4.78;1.70;;;15.80;66.40;;;;;;5116191;28;20046;-44
2022/06/12 02:40:19;;;;;;;3.85;1.45;;;15.80;66.60;;;;;;5116521;28;20076;-43
2022/06/12 02:42:48;;;;;;;4.75;1.35;;;15.80;66.60;;;;;;5116415;28;20051;-47
2022/06/12 02:45:20;;;;;;;6.03;1.75;;;15.70;66.60;;;;;;5116346;28;20028;-45
2022/06/12 02:47:48;;;;;;;6.25;1.60;;;15.70;66.80;;;;;;5116402;28;20514;-43
2022/06/12 02:50:17;;;;;;;4.13;1.50;;;15.70;66.90;;;;;;5116317;28;20440;-46
2022/06/12 02:53:12;;;;;;;6.13;1.67;;;15.70;67.00;;;;;;5116520;28;20027;-47
2022/06/12 02:55:46;;;;;;;3.72;1.35;;;15.80;67.20;;;;;;5116645;27;20023;-44
2022/06/12 02:58:40;;;;;;;3.63;1.50;;;15.70;67.20;;;;;;5116016;28;20032;-44
2022/06/12 03:01:18;;;;;;;3.75;1.42;;;15.80;67.40;;;;;;5114917;28;20027;-47
2022/06/12 03:04:03;;;;;;;5.22;1.70;;;15.70;67.40;;;;;;5114668;28;20016;-43
2022/06/12 03:06:29;;;;;;;5.90;1.63;;;15.80;67.50;;;;;;5115118;28;20024;-43
2022/06/12 03:08:58;;;;;;;4.90;1.90;;;15.80;67.60;;;;;;5115394;28;20039;-44
2022/06/12 03:11:38;;;;;;;4.00;1.70;;;15.80;67.70;;;;;;5115158;28;20047;-43
2022/06/12 03:14:13;;;;;;;5.25;1.92;;;15.80;67.90;;;;;;5114641;28;20034;-44
2022/06/12 03:16:41;;;;;;;5.97;1.70;;;15.80;67.90;;;;;;5115119;28;20054;-45
2022/06/12 03:19:15;;;;;;;4.85;1.60;;;15.80;68.00;;;;;;5114739;28;20471;-45
2022/06/12 03:22:10;;;;;;;3.45;1.45;;;15.80;68.10;;;;;;5114487;28;20023;-45
2022/06/12 03:24:45;;;;;;;6.88;1.60;;;15.80;68.20;;;;;;5105054;28;20047;-45
2022/06/12 03:27:32;;;;;;;4.78;1.58;;;15.80;68.20;;;;;;5114516;28;20031;-44
2022/06/12 03:30:23;;;;;;;6.90;1.52;;;15.80;69.10;;;;;;5114570;28;20119;-43
2022/06/12 03:32:54;;;;;;;5.85;1.70;;;15.80;68.50;;;;;;5114257;28;20103;-45
2022/06/12 03:35:52;;;;;;;5.57;1.65;;;15.70;68.60;;;;;;5114363;28;20024;-46
2022/06/12 03:42:11;;;;;;;6.82;1.90;;;15.70;68.90;;;;;;5114486;28;20062;-45
2022/06/12 03:44:54;;;;;;;4.68;1.77;;;15.70;68.90;;;;;;5114113;27;20084;-45
2022/06/12 03:47:32;;;;;;;6.87;1.97;;;15.70;68.90;;;;;;5113258;28;20016;-45
2022/06/12 03:50:35;;;;;;;6.30;1.92;;;15.70;68.90;;;;;;5114262;28;20387;-47
2022/06/12 03:53:21;;;;;;;6.75;2.10;;;15.70;69.10;;;;;;5107493;28;20047;-45
2022/06/12 03:58:52;;;;;;;4.18;1.88;;;15.80;69.30;;;;;;5076725;28;1068254;-45
2022/06/12 04:01:19;;;;;;;6.53;1.83;;;15.70;69.30;;;;;;5115095;28;20020;-45
2022/06/12 04:03:46;;;;;;;6.32;1.80;;;15.80;69.40;;;;;;5114751;28;20031;-45
2022/06/12 04:06:16;;;;;;;8.93;2.13;;;15.80;69.50;;;;;;5114775;28;20511;-44
2022/06/12 04:08:53;;;;;;;5.82;1.75;;;15.80;69.50;;;;;;5115004;28;20386;-45
2022/06/12 04:11:22;;;;;;;5.30;2.13;;;15.80;69.70;;;;;;5114930;28;20027;-45
2022/06/12 04:13:49;;;;;;;5.43;2.00;;;15.80;69.70;;;;;;5114575;27;20031;-45
2022/06/12 04:16:32;;;;;;;6.43;2.20;;;15.80;70.40;;;;;;5114451;28;20039;-45
2022/06/12 04:19:00;;;;;;;6.70;2.00;;;15.80;70.00;;;;;;5114672;28;20023;-45
2022/06/12 04:21:40;;;;;;;3.25;1.90;;;15.80;69.80;;;;;;5114694;28;20077;-45
2022/06/12 04:24:16;;;;;;;5.50;1.90;;;15.80;69.90;;;;;;5113061;28;20482;-46
2022/06/12 04:26:48;;;;;;;8.63;2.33;;;15.80;70.00;;;;;;5114553;28;20390;-45
2022/06/12 04:29:13;;;;;;;6.88;1.90;;;15.80;70.00;;;;;;5114658;28;20047;-43
2022/06/12 04:31:43;;;;;;;5.53;1.98;;;15.80;70.00;;;;;;5114284;28;20059;-44
2022/06/12 04:34:28;;;;;;;8.18;2.60;;;15.90;70.10;;;;;;5114616;28;20027;-44
2022/06/12 04:37:03;;;;;;;9.50;2.30;;;15.90;70.20;;;;;;5114220;28;20391;-44
2022/06/12 04:39:32;;;;;;;8.02;2.70;;;15.90;70.20;;;;;;5114031;28;20068;-44
2022/06/12 04:41:59;;;;;;;7.90;2.10;;;15.90;70.90;;;;;;5114264;28;20028;-44
2022/06/12 04:44:26;;;;;;;8.10;2.10;;;15.90;70.40;;;;;;5114002;28;20099;-44
2022/06/12 04:46:54;;;;;;;6.53;2.00;;;15.90;70.40;;;;;;5113917;28;20077;-44
2022/06/12 04:49:23;;;;;;;6.57;2.10;;;16.00;70.50;;;;;;5113867;28;20062;-44
2022/06/12 04:51:51;;;;;;;7.28;2.08;;;16.00;70.50;;;;;;5113751;28;20032;-43
2022/06/12 04:54:17;;;;;;;5.05;2.30;;;16.00;70.50;;;;;;5113845;28;20123;-44
2022/06/12 04:56:43;;;;;;;6.28;2.15;;;16.00;70.50;;;;;;5113550;28;20045;-42
2022/06/12 04:59:12;;;;;;;6.80;2.25;;;16.00;70.50;;;;;;5113267;28;20093;-45
2022/06/12 05:01:37;;;;;;;6.88;2.30;;;16.00;70.70;;;;;;5113601;28;20031;-45
2022/06/12 05:04:05;;;;;;;5.57;2.20;;;16.00;70.80;;;;;;5113682;28;20092;-45
2022/06/12 05:06:31;;;;;;;8.52;2.45;;;16.00;70.90;;;;;;5113571;28;20035;-45
2022/06/12 05:08:57;;;;;;;8.27;2.25;;;16.00;70.90;;;;;;5113722;28;20379;-44
2022/06/12 05:11:23;;;;;;;8.52;2.47;;;16.00;71.00;;;;;;5113834;28;20175;-44
2022/06/12 05:13:49;;;;;;;7.65;2.15;;;16.10;71.10;;;;;;5113770;28;20529;-44
2022/06/12 05:16:43;;;;;;;8.82;2.45;;;16.10;71.10;;;;;;5113623;28;20031;-43
2022/06/12 05:19:13;;;;;;;9.68;2.58;;;16.10;71.20;;;;;;5104154;28;20050;-44
2022/06/12 05:21:39;;;;;;;5.03;2.10;;;16.10;71.20;;;;;;5113246;28;20031;-44
2022/06/12 05:24:05;;;;;;;10.75;2.58;;;16.20;71.20;;;;;;5113160;28;20031;-44
2022/06/12 05:26:33;;;;;;;7.40;2.88;;;16.20;71.30;;;;;;5113448;28;20030;-44
2022/06/12 05:29:01;;;;;;;12.70;3.17;;;16.20;71.40;;;;;;5113341;28;20436;-44
2022/06/12 05:31:27;;;;;;;7.03;2.65;;;16.20;71.50;;;;;;5113042;28;20024;-44
2022/06/12 05:33:53;;;;;;;7.60;2.47;;;16.20;71.50;;;;;;5112970;28;20559;-44
2022/06/12 05:36:20;;;;;;;7.20;2.47;;;16.20;71.50;;;;;;5113221;28;20031;-43
2022/06/12 05:38:46;;;;;;;8.48;2.40;;;16.30;71.80;;;;;;5113216;28;20036;-47
2022/06/12 05:41:13;;;;;;;6.70;2.70;;;16.20;71.90;;;;;;5113171;28;20487;-43
2022/06/12 05:43:40;;;;;;;10.05;3.15;;;16.20;72.00;;;;;;5113154;28;20023;-44
2022/06/12 05:46:08;;;;;;;9.02;2.70;;;16.30;72.20;;;;;;5113035;28;20030;-44
2022/06/12 05:48:33;;;;;;;8.27;2.45;;;16.30;72.40;;;;;;5112946;28;20071;-44
2022/06/12 05:51:00;;;;;;;9.30;2.80;;;16.30;72.50;;;;;;5113125;28;20509;-44
2022/06/12 05:53:28;;;;;;;11.38;3.15;;;16.30;72.50;;;;;;5111842;28;20076;-43
2022/06/12 05:55:55;;;;;;;8.77;2.92;;;16.30;72.80;;;;;;5111348;28;20067;-44
2022/06/12 05:58:22;;;;;;;12.10;3.20;;;16.40;72.90;;;;;;5112896;28;20039;-44
2022/06/12 06:00:49;;;;;;;11.88;2.90;;;16.40;72.90;;;;;;5112908;28;20024;-44
2022/06/12 06:03:14;;;;;;;8.23;2.85;;;16.40;72.80;;;;;;5113191;28;20039;-42
2022/06/12 06:05:42;;;;;;;7.57;2.67;;;16.50;72.80;;;;;;5113013;28;20409;-44
2022/06/12 06:08:08;;;;;;;8.82;2.88;;;16.50;73.60;;;;;;5112671;28;20020;-44
2022/06/12 06:10:34;;;;;;;10.00;2.88;;;16.60;73.10;;;;;;5111542;28;20030;-43
2022/06/12 06:13:00;;;;;;;11.30;2.85;;;16.60;73.00;;;;;;5116981;28;20453;-44
2022/06/12 06:15:26;;;;;;;9.57;2.97;;;16.60;73.00;;;;;;5116749;28;20055;-44
2022/06/12 06:17:55;;;;;;;14.02;3.63;;;16.70;73.00;;;;;;5117022;28;20035;-44
2022/06/12 06:20:24;;;;;;;9.75;2.83;;;16.70;73.00;;;;;;5116355;28;20027;-44
2022/06/12 06:22:51;;;;;;;9.95;2.70;;;16.80;73.00;;;;;;5117114;28;20115;-44
2022/06/12 06:25:17;;;;;;;8.52;3.08;;;16.80;72.80;;;;;;5116534;28;20027;-44
2022/06/12 06:27:43;;;;;;;8.73;2.90;;;16.90;73.00;;;;;;5116767;28;20042;-44
2022/06/12 06:30:10;;;;;;;8.15;2.75;;;17.00;73.00;;;;;;5116507;28;20027;-42
2022/06/12 06:32:36;;;;;;;9.38;2.97;;;17.10;73.00;;;;;;5116433;28;20067;-42
2022/06/12 06:35:04;;;;;;;10.93;3.30;;;17.10;73.10;;;;;;5117052;28;20106;-45
2022/06/12 06:37:31;;;;;;;13.32;3.30;;;17.20;73.30;;;;;;5116989;28;20435;-44
2022/06/12 06:39:57;;;;;;;11.77;3.08;;;17.20;73.20;;;;;;5116688;28;20034;-44
2022/06/12 06:42:23;;;;;;;12.90;3.17;;;17.20;73.20;;;;;;5116221;28;20027;-43
2022/06/12 06:47:35;;;;;;;9.15;2.92;;;17.30;73.00;;;;;;5116146;28;20062;-44
2022/06/12 06:50:03;;;;;;;8.77;3.17;;;17.30;73.00;;;;;;5116134;28;20039;-43
2022/06/12 06:52:28;;;;;;;9.73;3.00;;;17.40;72.90;;;;;;5116062;28;20046;-44
2022/06/12 06:54:54;;;;;;;8.90;3.13;;;17.50;72.80;;;;;;5115935;28;20020;-44
2022/06/12 06:57:19;;;;;;;8.55;2.80;;;17.50;72.70;;;;;;5116305;28;20092;-44
2022/06/12 06:59:45;;;;;;;10.07;3.05;;;17.60;72.60;;;;;;5115661;28;20092;-44
2022/06/12 07:02:11;;;;;;;10.95;3.10;;;17.60;72.40;;;;;;5116060;28;20554;-44
2022/06/12 07:04:37;;;;;;;11.15;3.47;;;17.70;72.30;;;;;;5115764;28;20317;-44
2022/06/12 07:07:03;;;;;;;11.48;3.20;;;17.70;72.20;;;;;;5115835;28;20100;-45
2022/06/12 07:09:29;;;;;;;11.57;3.20;;;17.70;72.00;;;;;;5115635;28;20035;-44
2022/06/12 07:11:54;;;;;;;9.60;3.35;;;17.80;72.00;;;;;;5116043;28;20114;-45
2022/06/12 07:14:20;;;;;;;8.02;3.20;;;17.90;71.90;;;;;;5115659;28;20028;-45
2022/06/12 07:16:49;;;;;;;7.72;3.00;;;17.90;71.80;;;;;;5115762;28;20360;-45
2022/06/12 07:19:14;;;;;;;9.35;3.20;;;18.00;71.70;;;;;;5115576;28;20030;-44
2022/06/12 07:21:40;;;;;;;9.38;3.03;;;18.00;71.60;;;;;;5115673;28;20028;-44
2022/06/12 07:24:06;;;;;;;7.47;2.97;;;18.10;71.50;;;;;;5115911;28;20028;-44
2022/06/12 07:26:36;;;;;;;10.18;3.00;;;18.20;71.40;;;;;;5115827;28;20388;-44
2022/06/12 07:29:03;;;;;;;12.40;3.50;;;18.30;71.40;;;;;;5115575;28;20106;-44
2022/06/12 07:31:29;;;;;;;12.15;3.00;;;18.40;71.40;;;;;;5115484;28;20107;-44
2022/06/12 07:33:55;;;;;;;8.85;2.90;;;18.40;71.20;;;;;;5115289;28;20044;-46
2022/06/12 07:36:21;;;;;;;9.23;3.08;;;18.50;71.10;;;;;;5115715;28;20512;-45
2022/06/12 07:38:49;;;;;;;8.38;3.08;;;18.60;70.90;;;;;;5115340;28;20029;-46
2022/06/12 07:41:16;;;;;;;7.07;2.33;;;18.80;70.70;;;;;;5115462;28;20108;-44
2022/06/12 07:43:43;;;;;;;8.20;2.25;;;18.90;70.30;;;;;;5115192;28;20044;-43
2022/06/12 07:46:11;;;;;;;7.63;2.53;;;19.00;70.00;;;;;;5115125;28;20027;-45
2022/06/12 07:48:39;;;;;;;6.40;2.58;;;19.10;69.70;;;;;;5115252;28;20061;-45
2022/06/12 07:51:08;;;;;;;7.78;2.40;;;19.10;69.50;;;;;;5115288;28;20041;-47
2022/06/12 07:53:34;;;;;;;10.27;2.53;;;19.20;69.20;;;;;;5115223;28;20024;-45
2022/06/12 07:56:01;;;;;;;12.40;2.78;;;19.20;69.00;;;;;;5115264;28;20079;-45
2022/06/12 07:58:27;;;;;;;9.27;3.03;;;19.30;68.80;;;;;;5115077;28;20047;-45
2022/06/12 08:00:56;;;;;;;7.13;2.10;;;19.30;68.60;;;;;;5115101;28;20024;-45
2022/06/12 08:03:22;;;;;;;8.13;2.35;;;19.30;68.50;;;;;;5114934;28;20023;-45
2022/06/12 08:05:47;;;;;;;7.25;2.33;;;19.40;68.40;;;;;;5115009;28;20028;-46
2022/06/12 08:08:13;;;;;;;8.90;2.50;;;19.50;68.20;;;;;;5115093;28;20116;-43
2022/06/12 08:10:39;;;;;;;7.40;2.17;;;19.50;68.00;;;;;;5114644;28;20028;-50
2022/06/12 08:13:07;;;;;;;6.72;2.17;;;19.50;67.90;;;;;;5114918;28;20043;-45
2022/06/12 08:15:34;;;;;;;8.30;2.38;;;19.60;67.90;;;;;;5114617;27;20189;-47
2022/06/12 08:18:00;;;;;;;8.90;2.63;;;19.60;67.70;;;;;;5114574;28;20198;-47
2022/06/12 08:20:28;;;;;;;8.55;2.03;;;19.70;67.70;;;;;;5114848;28;20030;-45
2022/06/12 08:23:04;;;;;;;9.65;2.28;;;19.70;67.40;;;;;;5115118;28;20024;-45
2022/06/12 08:25:34;;;;;;;7.97;2.25;;;19.70;67.40;;;;;;5114825;28;20024;-47
2022/06/12 08:28:01;;;;;;;9.52;2.47;;;19.80;67.20;;;;;;5114746;28;20385;-44
2022/06/12 08:30:28;;;;;;;6.25;2.05;;;19.90;67.00;;;;;;5114644;28;20058;-45
2022/06/12 08:32:55;;;;;;;6.90;2.40;;;19.90;66.70;;;;;;5114225;27;20020;-46
2022/06/12 08:35:29;;;;;;;8.38;2.38;;;20.00;66.20;;;;;;5113949;28;20475;-45
2022/06/12 08:37:55;;;;;;;6.18;2.10;;;20.00;65.70;;;;;;5113975;28;20028;-46
2022/06/12 08:40:41;;;;;;;9.43;2.38;;;20.00;65.70;;;;;;5114371;28;20023;-46
2022/06/12 08:43:31;;;;;;;4.75;2.20;;;20.00;65.60;;;;;;5114158;28;20027;-45
2022/06/12 08:45:58;;;;;;;6.38;2.03;;;20.00;65.60;;;;;;5114207;28;20089;-45
2022/06/12 08:48:30;;;;;;;5.65;1.83;;;20.10;65.70;;;;;;5114035;28;20414;-47
2022/06/12 08:51:09;;;;;;;8.65;2.38;;;20.10;65.50;;;;;;5114022;28;20106;-46
2022/06/12 08:53:40;;;;;;;8.40;2.08;;;20.10;65.20;;;;;;5113919;28;20027;-46
2022/06/12 08:56:17;;;;;;;6.90;2.47;;;20.20;64.80;;;;;;5113624;28;20067;-46
2022/06/12 08:59:11;;;;;;;5.65;1.83;;;20.20;64.50;;;;;;5113711;28;20039;-45
2022/06/12 09:01:47;;;;;;;4.88;1.80;;;20.20;64.50;;;;;;5112590;28;20390;-46
2022/06/12 09:04:17;;;;;;;5.57;2.00;;;20.20;64.10;;;;;;5113453;28;20051;-44
2022/06/12 09:07:02;;;;;;;5.93;1.90;;;20.20;64.00;;;;;;5113742;28;20023;-45
2022/06/12 09:09:40;;;;;;;7.15;2.20;;;20.30;63.70;;;;;;5113462;28;20031;-46
2022/06/12 09:12:45;;;;;;;5.85;1.77;;;20.30;63.50;;;;;;5114034;28;20039;-44
2022/06/12 09:15:17;;;;;;;5.15;1.77;;;20.40;63.50;;;;;;5111745;28;20036;-45
2022/06/12 09:18:05;;;;;;;6.00;1.90;;;20.40;63.10;;;;;;5113395;28;20031;-44
2022/06/12 09:20:40;;;;;;;5.60;1.90;;;20.50;62.80;;;;;;5111950;28;20043;-46
2022/06/12 09:23:16;;;;;;;5.32;1.70;;;20.50;62.50;;;;;;5111783;28;20075;-46
2022/06/12 09:25:59;;;;;;;4.05;1.55;;;20.50;62.20;;;;;;5112978;28;20103;-45
2022/06/12 09:28:37;;;;;;;7.38;1.80;;;20.60;61.60;;;;;;5113280;28;20036;-45
2022/06/12 09:31:03;;;;;;;4.15;1.60;;;20.70;60.60;;;;;;5113055;28;20023;-46
2022/06/12 09:33:39;;;;;;;3.00;1.30;;;20.70;60.00;;;;;;5113700;28;20055;-44
2022/06/12 09:36:23;;;;;;;3.83;1.60;;;20.80;59.90;;;;;;5113431;28;20036;-44
2022/06/12 09:39:03;;;;;;;5.00;1.60;;;20.90;59.20;;;;;;5113148;28;20070;-45
2022/06/12 09:41:32;;;;;;;4.25;1.60;;;21.00;58.50;;;;;;5113337;28;20046;-44
2022/06/12 09:44:03;;;;;;;4.53;1.63;;;21.10;58.20;;;;;;5113032;28;20383;-45
2022/06/12 09:47:05;;;;;;;4.15;1.50;;;21.10;58.10;;;;;;5112257;28;20028;-44
2022/06/12 09:49:57;;;;;;;4.90;1.60;;;21.20;57.90;;;;;;5113032;28;20040;-45
2022/06/12 09:52:36;;;;;;;5.85;1.83;;;21.20;57.70;;;;;;5112900;28;20032;-46
2022/06/12 09:55:12;;;;;;;4.47;1.50;;;21.20;57.60;;;;;;5113002;28;20122;-45
2022/06/12 09:57:43;;;;;;;5.28;1.55;;;21.30;57.70;;;;;;5112990;28;20035;-45
2022/06/12 10:00:20;;;;;;;3.80;1.70;;;21.40;57.50;;;;;;5112845;28;20043;-47
2022/06/12 10:02:59;;;;;;;3.88;1.40;;;21.50;57.30;;;;;;5112718;28;20059;-44
2022/06/12 10:05:36;;;;;;;6.10;1.98;;;21.70;57.00;;;;;;5113002;28;20071;-45
2022/06/12 10:08:16;;;;;;;6.18;2.05;;;21.80;56.30;;;;;;5112765;28;20024;-45
2022/06/12 10:11:18;;;;;;;7.68;1.98;;;21.80;56.30;;;;;;5112990;28;20028;-45
2022/06/12 10:13:51;;;;;;;4.07;1.60;;;21.80;56.40;;;;;;5090598;28;20092;-47
2022/06/12 10:16:23;;;;;;;6.22;2.13;;;21.90;56.60;;;;;;5112997;28;20528;-46
2022/06/12 10:19:14;;;;;;;4.90;1.73;;;21.90;56.60;;;;;;5112788;28;20051;-46
2022/06/12 10:21:44;;;;;;;4.82;1.50;;;22.10;56.40;;;;;;5112895;28;20423;-48
2022/06/12 10:24:11;;;;;;;5.28;2.10;;;22.20;56.50;;;;;;5111787;28;20114;-46
2022/06/12 10:26:38;;;;;;;3.83;1.70;;;22.30;56.40;;;;;;5113288;28;20024;-46
2022/06/12 10:29:06;;;;;;;6.45;2.03;;;22.40;56.50;;;;;;5111641;28;20027;-45
2022/06/12 10:31:34;;;;;;;6.30;1.83;;;22.40;56.50;;;;;;5113154;28;20042;-45
2022/06/12 10:34:21;;;;;;;5.50;1.77;;;22.40;56.50;;;;;;5112926;28;20028;-45
2022/06/12 10:36:47;;;;;;;6.13;2.00;;;22.40;56.60;;;;;;5112609;28;20114;-47
2022/06/12 10:39:20;;;;;;;3.90;1.60;;;22.40;56.60;;;;;;5112623;28;20028;-45
2022/06/12 10:41:56;;;;;;;5.07;1.90;;;22.40;56.50;;;;;;5112727;28;20143;-44
2022/06/12 10:44:42;;;;;;;7.95;3.38;;;22.40;56.10;;;;;;5112763;28;20035;-45
2022/06/12 10:47:22;;;;;;;7.57;3.50;;;22.40;56.20;;;;;;5112931;28;20035;-45
2022/06/12 10:50:04;;;;;;;9.27;2.95;;;22.30;56.30;;;;;;5112534;28;20058;-45
2022/06/12 10:52:30;;;;;;;5.90;2.40;;;22.20;56.40;;;;;;5112696;28;20027;-42
2022/06/12 10:54:55;;;;;;;7.35;2.88;;;22.20;56.60;;;;;;5112399;28;20043;-45
2022/06/12 10:57:39;;;;;;;8.38;2.83;;;22.10;56.70;;;;;;5113920;28;20137;-44
2022/06/12 11:00:08;;;;;;;7.63;2.15;;;22.10;56.90;;;;;;5115945;28;20063;-43
2022/06/12 11:03:00;;;;;;;8.60;3.63;;;22.10;57.00;;;;;;5116397;28;20035;-45
2022/06/12 11:05:40;;;;;;;6.32;2.60;;;22.20;57.00;;;;;;5116136;28;20102;-46
2022/06/12 11:08:22;;;;;;;8.25;2.65;;;22.10;56.60;;;;;;5116093;28;20475;-45
2022/06/12 11:11:15;;;;;;;5.30;2.58;;;22.00;56.90;;;;;;5115966;28;20024;-47
2022/06/12 11:13:51;;;;;;;5.50;2.30;;;21.90;57.20;;;;;;5115963;28;20513;-47
2022/06/12 11:16:22;;;;;;;6.68;2.75;;;21.90;57.20;;;;;;5116057;28;20024;-47
2022/06/12 11:19:00;;;;;;;5.32;2.30;;;21.80;57.40;;;;;;5115681;28;20391;-47
2022/06/12 11:21:44;;;;;;;7.78;2.35;;;21.80;57.50;;;;;;5114702;28;20461;-45
2022/06/12 11:24:48;;;;;;;9.90;2.33;;;21.70;57.50;;;;;;5115894;28;20034;-43
2022/06/12 11:27:38;;;;;;;5.93;2.03;;;21.80;57.50;;;;;;5115547;28;20028;-47
2022/06/12 11:30:13;;;;;;;5.47;2.20;;;21.70;57.50;;;;;;5115719;28;20433;-44
2022/06/12 11:32:58;;;;;;;5.97;2.25;;;21.70;57.20;;;;;;5115207;28;20114;-46
2022/06/12 11:36:02;;;;;;;3.40;1.92;;;21.70;57.10;;;;;;5115534;28;20031;-44
2022/06/12 11:38:46;;;;;;;6.10;2.17;;;21.70;57.00;;;;;;5107710;28;20514;-44
2022/06/12 11:41:41;;;;;;;4.93;2.22;;;21.70;56.80;;;;;;5115254;28;20038;-46
2022/06/12 11:44:40;;;;;;;6.65;1.90;;;21.80;56.30;;;;;;5115300;28;20034;-43
2022/06/12 11:47:20;;;;;;;8.43;2.83;;;21.80;56.00;;;;;;5115230;28;20047;-44
2022/06/12 11:49:58;;;;;;;4.32;2.00;;;21.80;55.80;;;;;;5115241;28;20024;-45
2022/06/12 11:52:53;;;;;;;6.72;2.03;;;22.00;55.40;;;;;;5115267;28;20387;-44
2022/06/12 11:55:36;;;;;;;5.22;2.80;;;22.20;54.90;;;;;;5115416;28;20512;-45
2022/06/12 11:58:16;;;;;;;4.78;2.08;;;22.30;54.50;;;;;;5114733;28;20024;-46
2022/06/12 12:01:09;;;;;;;5.85;2.33;;;22.50;54.40;;;;;;5114774;28;20031;-44
2022/06/12 12:03:54;;;;;;;6.47;1.95;;;22.70;53.80;;;;;;5114773;28;20034;-44
2022/06/12 12:10:09;;;;;;;6.47;2.50;;;22.90;52.70;;;;;;5114346;28;20031;-45
2022/06/12 12:12:40;;;;;;;4.60;1.70;;;23.10;51.70;;;;;;5114814;28;20028;-43
2022/06/12 12:15:15;;;;;;;4.18;2.03;;;23.30;51.10;;;;;;5114838;28;20104;-43
2022/06/12 12:17:43;;;;;;;4.65;1.80;;;23.40;50.50;;;;;;5114723;28;20042;-44
2022/06/12 12:20:37;;;;;;;3.88;1.50;;;23.50;49.80;;;;;;5114708;28;20027;-44
2022/06/12 12:23:25;;;;;;;3.53;1.40;;;23.50;49.30;;;;;;5114520;28;20031;-43
2022/06/12 12:26:02;;;;;;;5.22;1.60;;;23.60;49.70;;;;;;5113126;28;20051;-43
2022/06/12 12:28:54;;;;;;;6.88;1.67;;;23.70;49.00;;;;;;5114381;27;20024;-43
2022/06/12 12:31:21;;;;;;;4.07;1.55;;;23.70;48.60;;;;;;5114886;28;20076;-44
2022/06/12 12:33:49;;;;;;;4.88;1.67;;;23.70;48.60;;;;;;5114562;28;20032;-44
2022/06/12 12:41:52;;;;;;;6.03;1.80;;;23.80;47.60;;;;;;5114382;28;20096;-44
2022/06/12 12:44:31;;;;;;;3.72;1.80;;;23.80;47.50;;;;;;5114589;28;20085;-43
2022/06/12 12:46:57;;;;;;;5.38;1.92;;;23.70;47.10;;;;;;5114429;28;20383;-48
2022/06/12 12:49:33;;;;;;;5.07;1.65;;;23.70;47.30;;;;;;5113995;28;20479;-44
2022/06/12 12:52:19;;;;;;;4.53;1.60;;;23.80;47.30;;;;;;5114323;28;20059;-45
2022/06/12 12:54:51;;;;;;;3.83;1.30;;;23.90;46.90;;;;;;5114012;27;20620;-45
2022/06/12 12:57:31;;;;;;;2.77;1.37;;;24.00;46.90;;;;;;5113618;28;20053;-45
2022/06/12 12:59:57;;;;;;;3.65;1.30;;;24.10;45.90;;;;;;5113634;28;20281;-45
2022/06/12 13:02:40;;;;;;;3.10;1.40;;;24.00;45.40;;;;;;5113698;28;20095;-46
2022/06/12 13:05:19;;;;;;;3.78;1.30;;;23.90;44.10;;;;;;5112375;28;20046;-45
2022/06/12 13:08:09;;;;;;;4.47;1.45;;;23.80;43.90;;;;;;5113398;28;20039;-44
2022/06/12 13:10:44;;;;;;;10.88;1.63;;;23.80;44.60;;;;;;5112231;28;20491;-45
2022/06/12 13:13:27;;;;;;;3.20;1.10;;;23.90;44.10;;;;;;5113438;28;20031;-45
2022/06/12 13:15:59;;;;;;;;;;;23.80;44.20;;;;;;5113702;28;20023;-45
2022/06/12 13:18:33;;;;;;;4.85;1.30;;;23.90;44.30;;;;;;5113255;28;20362;-45
2022/06/12 13:21:11;;;;;;;2.05;1.10;;;23.90;43.10;;;;;;5112855;28;20143;-45
2022/06/12 13:23:57;;;;;;;2.78;1.20;;;23.90;42.80;;;;;;5113202;28;20024;-46
2022/06/12 13:26:25;;;;;;;1.85;0.98;;;23.90;43.10;;;;;;5113037;28;20019;-45
2022/06/12 13:28:59;;;;;;;3.70;1.23;;;24.10;42.40;;;;;;5113088;28;20023;-46
2022/06/12 13:31:29;;;;;;;2.22;0.80;;;24.10;42.10;;;;;;5113379;28;20026;-45
2022/06/12 13:33:57;;;;;;;3.17;0.85;;;24.10;42.10;;;;;;5112918;28;20023;-45
2022/06/12 13:36:40;;;;;;;4.50;1.10;;;24.10;42.70;;;;;;5113243;28;20383;-45
2022/06/12 13:39:27;;;;;;;1.33;0.70;;;24.30;42.00;;;;;;5112747;28;20051;-45
2022/06/12 13:42:01;;;;;;;1.40;0.82;;;24.30;42.20;;;;;;5112945;28;20023;-45
2022/06/12 13:44:35;;;;;;;3.05;0.98;;;24.30;42.10;;;;;;5113316;28;20019;-45
2022/06/12 13:47:36;;;;;;;2.42;1.02;;;24.30;41.70;;;;;;5112971;28;20031;-45